createdAt,value
2022-11-26T00:09:39.265Z,2318.33961
2022-11-26T00:24:41.178Z,2340.61186
2022-11-26T00:39:43.030Z,2490.70683
2022-11-26T00:54:44.897Z,2528.3024
2022-11-26T01:09:46.899Z,2562.14201
2022-11-26T01:24:48.802Z,2624.87809
2022-11-26T01:39:50.693Z,2557.25242
2022-11-26T01:54:52.625Z,2599.41856
2022-11-26T02:09:54.624Z,2576.92359
2022-11-26T02:24:56.512Z,2547.52903
2022-11-26T02:39:58.471Z,2472.32524
2022-11-26T02:55:00.440Z,2559.69488
2022-11-26T03:10:02.362Z,2545.10973
2022-11-26T03:25:04.288Z,2528.3024
2022-11-26T03:40:06.174Z,2645.60763
2022-11-26T03:55:08.032Z,2748.71847
2022-11-26T04:10:10.025Z,2821.05316
2022-11-26T04:25:11.934Z,2682.6832
2022-11-26T04:40:13.865Z,2698.89277
2022-11-26T04:55:15.863Z,2397.13826
2022-11-26T05:10:17.795Z,2275.04295
2022-11-26T05:25:19.808Z,2242.67833
2022-11-26T05:40:21.722Z,2273.11331
2022-11-26T05:55:23.649Z,2231.47428
2022-11-26T06:10:25.557Z,2306.36884
2022-11-26T06:25:27.468Z,1854.67178
2022-11-26T06:40:29.389Z,1694.05865
2022-11-26T06:55:31.306Z,1844.46024
2022-11-26T07:10:33.219Z,1903.40959
2022-11-26T07:25:35.177Z,2025.69967
2022-11-26T07:40:37.074Z,2163.03521
2022-11-26T07:55:38.955Z,2246.43806
2022-11-26T08:10:40.925Z,2296.48723
2022-11-26T08:26:06.045Z,2298.45677
2022-11-26T08:41:22.772Z,2308.35537
2022-11-26T08:56:24.679Z,2436.36415
2022-11-26T09:11:26.617Z,2486.08586
2022-11-26T09:26:28.506Z,2576.92359
2022-11-26T09:41:30.400Z,2680.00052
2022-11-26T09:56:32.331Z,2704.33957
2022-11-26T10:11:34.292Z,2734.6944
2022-11-26T10:26:36.197Z,2712.55113
2022-11-26T10:41:38.122Z,2832.9815
2022-11-26T10:56:40.012Z,2785.86331
2022-11-26T11:11:41.990Z,2827.00475
2022-11-26T11:26:43.927Z,2827.00475
2022-11-26T11:41:45.855Z,2848.03453
2022-11-26T11:56:47.794Z,2800.4185
2022-11-26T12:11:49.689Z,2731.90674
2022-11-26T12:26:51.619Z,2609.54287
2022-11-26T12:41:53.523Z,2745.90216
2022-11-26T12:56:55.400Z,2671.98457
2022-11-26T13:11:57.304Z,2594.3858
2022-11-26T13:26:59.255Z,2509.36381
2022-11-26T13:42:03.151Z,2612.08629
2022-11-26T13:57:05.021Z,2584.37853
2022-11-26T14:12:06.913Z,2463.23581
2022-11-26T14:27:08.816Z,2380.10708
2022-11-26T14:42:10.775Z,2488.3942
2022-11-26T14:57:12.685Z,2425.33988
2022-11-26T15:12:14.550Z,2013.52417
2022-11-26T15:27:16.449Z,1925.28785
2022-11-26T15:42:18.354Z,2222.22273
2022-11-26T15:57:20.277Z,2350.8777
2022-11-26T16:12:22.178Z,2504.67341
2022-11-26T16:27:24.058Z,2635.20209
2022-11-26T16:42:26.061Z,2440.80197
2022-11-26T16:57:28.016Z,2403.58795
2022-11-26T17:12:29.988Z,2438.58104
2022-11-26T17:27:31.923Z,2454.21297
2022-11-26T17:42:36.660Z,2476.89515
2022-11-26T17:57:39.068Z,2521.16702
2022-11-26T18:12:40.997Z,2586.8731
2022-11-26T18:27:42.958Z,2630.02996
2022-11-26T18:42:44.916Z,2332.46352
2022-11-26T18:57:46.873Z,2238.93117
2022-11-26T19:12:48.757Z,2224.0669
2022-11-26T19:27:50.688Z,2284.74049
2022-11-26T19:42:52.586Z,2367.49168
2022-11-26T19:57:54.454Z,2420.95805
2022-11-26T20:12:56.344Z,2470.0466
2022-11-26T20:27:58.184Z,2443.02695
2022-11-26T20:43:00.103Z,2227.76443
2022-11-26T20:58:02.053Z,2334.49528
2022-11-26T21:13:03.963Z,2350.8777
2022-11-26T21:28:05.958Z,2407.90707
2022-11-26T21:43:07.882Z,2407.90707
2022-11-26T21:58:09.845Z,2458.71611
2022-11-26T22:13:11.756Z,2488.3942
2022-11-26T22:28:13.671Z,2537.8793
2022-11-26T22:43:15.536Z,2547.52903
2022-11-26T22:58:17.436Z,2488.3942
2022-11-26T23:13:19.425Z,2495.34502
2022-11-26T23:28:21.345Z,2518.79751
2022-11-26T23:43:23.283Z,2486.08586
2022-11-26T23:58:25.279Z,2458.71611
